Time;durP1;ratioP1;P1;durP2;ratioP2;P2;SDS_P1;SDS_P2;PMS_P1;PMS_P2;Temp;Humidity;BMP_temperature;BMP_pressure;BME280_temperature;BME280_humidity;BME280_pressure;Samples;Min_cycle;Max_cycle;Signal;HPM_P1;HPM_P2
2020/12/13 00:02:21;;;;;;;40.92;15.93;;;;;;;2.44;83.75;98168.14;2269933;78;20216;-64
2020/12/13 00:05:23;;;;;;;;;;;;;;;2.51;84.00;98169.59;2272064;78;21712;-65
2020/12/13 00:08:26;;;;;;;46.90;17.52;;;;;;;2.50;83.81;98169.22;2269719;78;20264;-64
2020/12/13 00:11:28;;;;;;;43.23;17.05;;;;;;;2.47;83.56;98169.77;2269653;78;21257;-65
2020/12/13 00:14:30;;;;;;;41.23;16.12;;;;;;;2.40;83.76;98170.48;2258528;78;21273;-65
2020/12/13 00:17:32;;;;;;;41.40;16.20;;;;;;;2.45;83.82;98175.02;2253357;79;21158;-65
2020/12/13 00:20:35;;;;;;;;;;;;;;;2.41;83.63;98175.59;2255853;79;21717;-64
2020/12/13 00:23:37;;;;;;;47.23;19.57;;;;;;;2.42;83.63;98177.72;2253443;78;20256;-64
2020/12/13 00:26:39;;;;;;;46.70;17.80;;;;;;;2.38;83.68;98182.62;2253262;79;21719;-65
2020/12/13 00:29:41;;;;;;;40.23;15.53;;;;;;;2.37;83.75;98178.33;2253535;79;21265;-65
2020/12/13 00:32:44;;;;;;;42.80;16.48;;;;;;;2.37;83.75;98178.33;2253498;79;21696;-65
2020/12/13 00:35:47;;;;;;;43.52;16.45;;;;;;;2.37;83.37;98186.96;2223801;79;21261;-64
2020/12/13 00:38:49;;;;;;;40.38;14.78;;;;;;;2.34;83.22;98193.55;2253261;79;21269;-65
2020/12/13 00:41:52;;;;;;;38.23;14.38;;;;;;;2.37;83.42;98193.86;2253779;79;21256;-65
2020/12/13 00:44:54;;;;;;;37.30;15.20;;;;;;;2.33;83.16;98198.33;2253226;79;21145;-65
2020/12/13 00:47:56;;;;;;;37.58;13.95;;;;;;;2.29;83.09;98200.63;2253275;79;21277;-64
2020/12/13 00:50:58;;;;;;;38.63;15.65;;;;;;;2.30;83.29;98206.64;2253339;79;21276;-64
2020/12/13 00:54:00;;;;;;;40.52;15.85;;;;;;;2.24;83.05;98211.16;2253536;79;21269;-65
2020/12/13 00:57:02;;;;;;;44.48;21.10;;;;;;;2.24;83.42;98215.48;2253749;79;21305;-64
2020/12/13 01:00:05;;;;;;;48.95;22.48;;;;;;;2.25;83.32;98214.58;2253650;79;21714;-64
2020/12/13 01:03:07;;;;;;;41.83;16.15;;;;;;;2.21;83.29;98214.30;2253728;79;21285;-64
2020/12/13 01:06:09;;;;;;;40.50;16.07;;;;;;;2.26;83.33;98212.40;2253530;79;21284;-64
2020/12/13 01:09:11;;;;;;;41.53;16.48;;;;;;;2.30;83.39;98216.56;2253466;79;21272;-64
2020/12/13 01:12:13;;;;;;;41.08;15.75;;;;;;;2.31;83.21;98218.23;2253524;79;21629;-64
2020/12/13 01:15:15;;;;;;;42.67;16.50;;;;;;;2.25;83.24;98215.41;2267059;78;21260;-64
2020/12/13 01:18:17;;;;;;;42.13;15.70;;;;;;;2.24;83.55;98207.71;2269250;78;21290;-64
2020/12/13 01:21:19;;;;;;;41.42;15.70;;;;;;;2.31;83.15;98214.81;2269818;78;21122;-64
2020/12/13 01:24:22;;;;;;;38.83;14.60;;;;;;;2.31;83.15;98213.52;2269275;78;21256;-64
2020/12/13 01:27:24;;;;;;;39.73;15.28;;;;;;;2.21;83.20;98212.58;2269526;78;21268;-65
2020/12/13 01:30:26;;;;;;;38.92;14.98;;;;;;;2.19;83.42;98223.88;2269528;78;21725;-65
2020/12/13 01:33:28;;;;;;;41.63;15.08;;;;;;;2.24;83.55;98224.53;2269444;78;21283;-65
2020/12/13 01:36:30;;;;;;;40.60;15.80;;;;;;;2.23;83.22;98225.45;2269244;78;21288;-64
2020/12/13 01:39:32;;;;;;;37.73;14.63;;;;;;;2.17;83.34;98220.48;2269373;78;21709;-65
2020/12/13 01:42:35;;;;;;;40.98;16.95;;;;;;;2.12;83.33;98227.13;2269358;78;21276;-65
2020/12/13 01:45:37;;;;;;;41.88;16.97;;;;;;;2.24;83.73;98228.41;2269259;78;21255;-65
2020/12/13 01:48:39;;;;;;;40.05;16.07;;;;;;;2.25;83.43;98223.64;2269230;78;21292;-64
2020/12/13 01:51:48;;;;;;;39.90;15.63;;;;;;;2.23;83.34;98222.41;2269511;78;21696;-64
2020/12/13 01:54:48;;;;;;;41.15;16.10;;;;;;;2.30;83.25;98223.03;2268928;78;21269;-65
2020/12/13 01:57:50;;;;;;;37.38;14.60;;;;;;;2.36;83.23;98228.44;2269248;78;21280;-65
2020/12/13 02:00:53;;;;;;;39.25;13.85;;;;;;;2.29;82.86;98226.52;2269465;78;21577;-65
2020/12/13 02:03:55;;;;;;;36.38;14.35;;;;;;;2.22;82.99;98227.64;2269399;78;21260;-64
2020/12/13 02:06:57;;;;;;;37.88;15.70;;;;;;;2.22;82.99;98229.77;2269743;78;21307;-64
2020/12/13 02:09:59;;;;;;;39.50;14.87;;;;;;;2.20;83.02;98234.63;2269358;78;21283;-64
2020/12/13 02:13:01;;;;;;;38.17;14.78;;;;;;;2.17;82.84;98234.72;2245772;78;21276;-65
2020/12/13 02:16:03;;;;;;;32.38;13.00;;;;;;;2.13;82.84;98238.34;2253206;79;21250;-64
2020/12/13 02:19:05;;;;;;;38.05;15.85;;;;;;;2.12;82.91;98245.23;2253666;79;21289;-64
2020/12/13 02:22:08;;;;;;;38.38;16.00;;;;;;;2.12;83.00;98241.36;2253310;79;21700;-64
2020/12/13 02:25:10;;;;;;;35.90;13.50;;;;;;;2.24;83.26;98243.94;2253177;79;21257;-65
2020/12/13 02:28:12;;;;;;;40.20;15.50;;;;;;;2.28;82.82;98242.94;2253564;79;21257;-64
2020/12/13 02:31:14;;;;;;;38.33;14.15;;;;;;;2.28;82.69;98247.28;2253419;79;21716;-64
2020/12/13 02:34:16;;;;;;;40.12;15.95;;;;;;;2.25;82.47;98245.17;2253440;79;21293;-64
2020/12/13 02:37:18;;;;;;;40.48;15.60;;;;;;;2.19;82.33;98240.23;2253468;79;21189;-64
2020/12/13 02:40:21;;;;;;;37.25;14.53;;;;;;;2.14;82.51;98241.30;2253315;79;21701;-65
2020/12/13 02:43:23;;;;;;;33.98;12.80;;;;;;;2.13;82.64;98243.52;2223687;79;21281;-65
2020/12/13 02:46:25;;;;;;;34.18;13.30;;;;;;;2.20;82.42;98243.23;2223812;79;21709;-65
2020/12/13 02:49:27;;;;;;;33.20;13.50;;;;;;;2.20;82.35;98244.98;2253179;79;21276;-65
2020/12/13 02:52:29;;;;;;;34.53;14.38;;;;;;;2.18;82.41;98241.59;2253658;79;21268;-65
2020/12/13 02:55:31;;;;;;;34.50;13.05;;;;;;;2.20;82.44;98241.09;2223812;79;21712;-65
2020/12/13 02:58:33;;;;;;;34.67;12.58;;;;;;;2.21;82.53;98247.94;2253113;79;21127;-64
2020/12/13 03:01:35;;;;;;;34.63;13.93;;;;;;;2.21;82.24;98248.80;2253560;79;21327;-64
2020/12/13 03:04:38;;;;;;;33.98;13.00;;;;;;;2.20;82.43;98245.81;2253696;79;21268;-64
2020/12/13 03:07:40;;;;;;;30.80;11.80;;;;;;;2.20;82.41;98250.16;2253532;79;21573;-64
2020/12/13 03:10:42;;;;;;;29.23;10.53;;;;;;;2.18;82.25;98254.52;2223748;79;21272;-64
2020/12/13 03:13:44;;;;;;;37.05;13.48;;;;;;;2.17;82.25;98256.28;2253281;78;21280;-65
2020/12/13 03:16:46;;;;;;;32.80;12.25;;;;;;;2.17;82.25;98261.45;2253436;79;21772;-65
2020/12/13 03:19:48;;;;;;;31.65;11.48;;;;;;;2.18;82.29;98263.58;2253592;79;21173;-64
2020/12/13 03:22:50;;;;;;;31.82;10.68;;;;;;;2.21;82.01;98267.34;2253337;79;21272;-64
2020/12/13 03:25:52;;;;;;;31.33;11.70;;;;;;;2.23;81.95;98265.56;2253447;79;21281;-64
2020/12/13 03:28:54;;;;;;;31.75;15.35;;;;;;;2.19;82.01;98269.99;2253354;79;21268;-64
2020/12/13 03:31:56;;;;;;;32.08;12.40;;;;;;;2.23;81.86;98281.92;2223828;79;21305;-64
2020/12/13 03:34:59;;;;;;;39.70;15.30;;;;;;;2.23;82.08;98283.68;2253673;79;21261;-65
2020/12/13 03:38:01;;;;;;;30.85;12.20;;;;;;;2.28;81.68;98290.81;2253818;79;21300;-64
2020/12/13 03:41:03;;;;;;;33.08;10.55;;;;;;;2.21;81.51;98299.69;2253357;79;21700;-64
2020/12/13 03:44:06;;;;;;;31.40;11.03;;;;;;;2.17;81.40;98296.39;2253312;79;21752;-64
2020/12/13 03:47:08;;;;;;;32.67;12.30;;;;;;;2.15;81.42;98294.75;2253316;79;21265;-64
2020/12/13 03:50:10;;;;;;;35.08;12.03;;;;;;;2.18;81.79;98295.47;2253720;79;21288;-65
2020/12/13 03:53:12;;;;;;;32.55;11.90;;;;;;;2.23;81.29;98292.73;2253428;79;21708;-65
2020/12/13 03:56:14;;;;;;;33.33;12.45;;;;;;;2.20;81.45;98292.85;2253572;79;21260;-64
2020/12/13 03:59:16;;;;;;;32.13;11.50;;;;;;;2.22;81.63;98294.46;2253378;79;21211;-64
2020/12/13 04:02:19;;;;;;;29.25;10.32;;;;;;;2.27;81.53;98286.56;2253620;79;21269;-64
2020/12/13 04:05:21;;;;;;;34.65;12.30;;;;;;;2.22;81.37;98291.04;2253801;79;21273;-64
2020/12/13 04:08:23;;;;;;;32.70;12.10;;;;;;;2.18;81.20;98298.05;2253429;79;21708;-64
2020/12/13 04:11:25;;;;;;;31.77;11.83;;;;;;;2.15;81.46;98295.58;2253267;79;21301;-64
2020/12/13 04:14:27;;;;;;;31.95;11.38;;;;;;;2.12;81.26;98304.74;2253223;79;21289;-65
2020/12/13 04:17:29;;;;;;;29.63;11.15;;;;;;;2.07;81.32;98313.97;2253466;79;21704;-64
2020/12/13 04:20:31;;;;;;;28.85;10.82;;;;;;;2.06;81.55;98303.22;2253424;79;21268;-64
2020/12/13 04:23:33;;;;;;;29.75;10.43;;;;;;;2.04;81.39;98300.28;2253801;79;21273;-64
2020/12/13 04:26:36;;;;;;;30.02;11.38;;;;;;;2.01;81.42;98301.25;2223838;79;21740;-64
2020/12/13 04:29:38;;;;;;;29.07;10.72;;;;;;;1.97;81.52;98304.84;2253561;79;21276;-64
2020/12/13 04:32:41;;;;;;;30.75;10.75;;;;;;;1.94;81.61;98304.95;2253540;79;21570;-65
2020/12/13 04:35:43;;;;;;;37.13;14.20;;;;;;;1.91;81.73;98303.73;2253525;79;21225;-64
2020/12/13 04:38:45;;;;;;;29.65;11.08;;;;;;;1.96;81.68;98306.19;2223898;79;21609;-64
2020/12/13 04:41:48;;;;;;;30.10;11.35;;;;;;;1.92;81.78;98299.42;2253296;79;21269;-64
2020/12/13 04:44:50;;;;;;;32.15;11.85;;;;;;;1.92;81.79;98301.55;2253572;79;21300;-65
2020/12/13 04:47:52;;;;;;;30.95;10.85;;;;;;;1.91;81.83;98305.03;2253292;79;21293;-64
2020/12/13 04:50:55;;;;;;;28.52;10.05;;;;;;;1.95;81.70;98303.20;2253407;79;21296;-64
2020/12/13 04:53:57;;;;;;;31.57;10.60;;;;;;;1.88;81.46;98307.30;2253463;79;21302;-64
2020/12/13 04:56:59;;;;;;;33.08;11.97;;;;;;;1.83;81.59;98307.05;2253331;79;21256;-64
2020/12/13 05:00:01;;;;;;;39.88;12.88;;;;;;;1.81;81.58;98314.00;2253258;79;21277;-64
2020/12/13 05:03:03;;;;;;;29.87;10.50;;;;;;;1.80;81.69;98313.16;2253271;79;21285;-64
2020/12/13 05:06:06;;;;;;;33.10;11.68;;;;;;;1.85;81.56;98316.45;2253475;79;21574;-64
2020/12/13 05:09:08;;;;;;;35.73;12.28;;;;;;;1.77;81.31;98327.50;2253235;79;21284;-64
2020/12/13 05:12:10;;;;;;;31.73;11.18;;;;;;;1.78;81.57;98333.50;2253313;79;21717;-64
2020/12/13 05:15:13;;;;;;;29.80;10.15;;;;;;;1.71;81.53;98340.17;2253232;78;21280;-64
2020/12/13 05:18:16;;;;;;;32.63;11.25;;;;;;;1.68;81.53;98340.28;2253174;79;21609;-64
2020/12/13 05:21:18;;;;;;;31.77;11.20;;;;;;;1.72;81.91;98343.17;2253326;79;21273;-64
2020/12/13 05:24:20;;;;;;;28.40;10.45;;;;;;;1.78;81.57;98343.42;2253418;79;21713;-64
2020/12/13 05:27:23;;;;;;;29.50;10.23;;;;;;;1.81;81.47;98342.45;2253586;79;21123;-65
2020/12/13 05:30:25;;;;;;;26.75;9.48;;;;;;;1.78;81.26;98342.55;2253223;79;21285;-64
2020/12/13 05:33:30;;;;;;;30.17;11.10;;;;;;;1.67;81.28;98344.22;2253435;79;21693;-65
2020/12/13 05:36:34;;;;;;;30.92;10.72;;;;;;;1.72;81.56;98346.19;2253271;79;21261;-64
2020/12/13 05:39:36;;;;;;;31.02;12.30;;;;;;;1.68;81.30;98345.45;2223877;80;21255;-65
2020/12/13 05:42:40;;;;;;;31.15;12.63;;;;;;;1.62;81.27;98348.22;2242177;79;21285;-65
2020/12/13 05:46:09;;;;;;;32.90;12.85;;;;;;;1.55;81.52;98349.31;2224054;80;21283;-64
2020/12/13 05:52:23;;;;;;;31.73;10.98;;;;;;;1.52;81.71;98350.70;2224138;80;21558;-65
2020/12/13 05:55:25;;;;;;;34.00;15.20;;;;;;;1.60;81.86;98357.78;2242861;79;21324;-65
2020/12/13 05:58:27;;;;;;;34.35;15.60;;;;;;;1.55;81.62;98360.94;2224645;80;21287;-65
2020/12/13 06:01:30;;;;;;;33.05;12.20;;;;;;;1.62;81.92;98369.36;2242634;79;21316;-64
2020/12/13 06:04:32;;;;;;;33.53;11.65;;;;;;;1.60;81.68;98372.00;2224294;80;21692;-64
2020/12/13 06:07:34;;;;;;;29.23;11.45;;;;;;;1.58;81.79;98377.67;2242239;79;21299;-64
2020/12/13 06:10:36;;;;;;;29.35;11.18;;;;;;;1.60;81.86;98374.58;2224429;80;21268;-64
2020/12/13 06:13:38;;;;;;;30.32;12.03;;;;;;;1.67;81.91;98377.83;2242252;79;21278;-64
2020/12/13 06:16:40;;;;;;;30.70;12.13;;;;;;;1.64;81.67;98376.18;2253050;79;21252;-64
2020/12/13 06:19:44;;;;;;;;;;;;;;;1.62;81.75;98377.11;2301482;77;21159;-64
2020/12/13 06:22:46;;;;;;;29.85;12.68;;;;;;;1.65;81.75;98374.00;2298901;77;20249;-65
2020/12/13 06:25:48;;;;;;;34.50;15.13;;;;;;;1.72;81.86;98379.80;2298653;77;21324;-65
2020/12/13 06:28:50;;;;;;;35.33;12.58;;;;;;;1.70;81.66;98379.02;2298414;77;21261;-65
2020/12/13 06:31:52;;;;;;;31.55;12.00;;;;;;;1.68;81.62;98384.23;2298763;77;21660;-65
2020/12/13 06:34:54;;;;;;;30.60;10.48;;;;;;;1.67;81.67;98387.71;2298811;77;21288;-65
2020/12/13 06:37:56;;;;;;;30.57;11.28;;;;;;;1.84;81.69;98390.19;2298694;77;21300;-64
2020/12/13 06:40:58;;;;;;;30.23;10.95;;;;;;;1.79;81.43;98396.81;2298617;77;21252;-64
2020/12/13 06:44:01;;;;;;;29.90;12.40;;;;;;;1.75;81.29;98403.42;2298811;77;21673;-65
2020/12/13 06:47:03;;;;;;;32.40;12.33;;;;;;;1.70;81.36;98407.00;2298823;77;21696;-64
2020/12/13 06:50:07;;;;;;;27.87;9.95;;;;;;;1.64;81.43;98412.80;2298469;77;21261;-65
2020/12/13 06:53:09;;;;;;;31.55;11.12;;;;;;;1.55;81.38;98417.81;2298848;77;21535;-65
2020/12/13 06:56:12;;;;;;;30.62;11.30;;;;;;;1.58;81.71;98412.58;2298652;77;21125;-64
2020/12/13 06:59:14;;;;;;;30.50;11.18;;;;;;;1.64;81.73;98417.55;2298541;77;21111;-65
2020/12/13 07:02:17;;;;;;;28.07;10.13;;;;;;;1.61;81.48;98421.95;2298394;77;21593;-64
2020/12/13 07:05:19;;;;;;;26.90;10.00;;;;;;;1.52;81.44;98425.67;2298709;77;21252;-64
2020/12/13 07:08:23;;;;;;;29.52;10.88;;;;;;;1.51;81.74;98431.30;2298998;77;21256;-65
2020/12/13 07:11:27;;;;;;;30.15;11.45;;;;;;;1.57;81.72;98434.14;2298582;77;21680;-64
2020/12/13 07:14:30;;;;;;;33.00;12.95;;;;;;;1.61;81.96;98438.33;2298355;77;21122;-65
2020/12/13 07:17:33;;;;;;;32.03;12.47;;;;;;;1.69;81.66;98437.63;2298938;77;21257;-65
2020/12/13 07:20:35;;;;;;;34.78;14.10;;;;;;;1.78;81.85;98439.53;2298943;77;21717;-65
2020/12/13 07:23:37;;;;;;;32.55;11.83;;;;;;;1.80;81.34;98448.11;2299035;77;21277;-64
2020/12/13 07:26:39;;;;;;;34.43;12.35;;;;;;;1.73;81.22;98452.16;2298572;77;21257;-64
2020/12/13 07:29:41;;;;;;;31.40;11.03;;;;;;;1.68;81.32;98447.59;2298757;77;21304;-64
2020/12/13 07:32:43;;;;;;;30.35;10.75;;;;;;;1.66;81.40;98451.94;2298835;77;21660;-64
2020/12/13 07:35:46;;;;;;;27.15;9.20;;;;;;;1.63;81.32;98452.50;2298513;77;21258;-64
2020/12/13 07:38:48;;;;;;;28.35;10.15;;;;;;;1.57;81.48;98449.66;2298419;77;21243;-65
2020/12/13 07:41:50;;;;;;;30.20;10.85;;;;;;;1.58;81.66;98451.35;2298570;77;21221;-64
2020/12/13 07:44:53;;;;;;;30.05;11.18;;;;;;;1.59;81.66;98456.06;2277215;77;21573;-65
2020/12/13 07:48:00;;;;;;;28.92;10.95;;;;;;;1.60;81.64;98459.89;2298685;77;21261;-64
2020/12/13 07:51:02;;;;;;;30.75;10.98;;;;;;;1.65;81.35;98467.50;2298436;77;21244;-64
2020/12/13 07:54:04;;;;;;;33.58;13.25;;;;;;;1.62;81.42;98465.02;2298899;77;21260;-65
2020/12/13 07:57:10;;;;;;;31.40;11.80;;;;;;;1.63;81.59;98466.72;2298718;77;21709;-65
2020/12/13 08:00:11;;;;;;;29.80;11.60;;;;;;;1.71;81.61;98468.17;2298518;77;21256;-65
2020/12/13 08:03:13;;;;;;;31.33;12.68;;;;;;;1.79;81.44;98476.14;2298781;77;21276;-65
2020/12/13 08:06:15;;;;;;;29.55;11.70;;;;;;;1.85;81.41;98475.94;2298480;77;21264;-64
2020/12/13 08:09:17;;;;;;;30.55;11.93;;;;;;;1.82;81.15;98475.58;2298524;77;21724;-65
2020/12/13 08:12:21;;;;;;;36.17;14.53;;;;;;;1.81;81.26;98478.22;2298502;77;21700;-65
2020/12/13 08:15:23;;;;;;;34.83;13.72;;;;;;;1.79;81.26;98478.73;2298286;77;21260;-65
2020/12/13 08:18:25;;;;;;;30.23;11.65;;;;;;;1.78;81.38;98484.36;2298980;77;21328;-64
2020/12/13 08:21:27;;;;;;;29.87;11.68;;;;;;;1.81;81.12;98482.97;2298645;77;21276;-65
2020/12/13 08:24:30;;;;;;;30.10;10.98;;;;;;;1.74;81.05;98486.63;2298715;77;21580;-65
2020/12/13 08:27:32;;;;;;;26.68;10.03;;;;;;;1.63;80.33;98496.45;2298703;77;21692;-65
2020/12/13 08:30:35;;;;;;;33.55;13.58;;;;;;;1.51;81.25;98496.38;2298362;77;21260;-65
2020/12/13 08:33:37;;;;;;;33.30;14.18;;;;;;;1.53;81.35;98502.34;2298970;77;21308;-64
2020/12/13 08:36:39;;;;;;;29.05;11.78;;;;;;;1.57;81.51;98510.41;2298593;77;21276;-64
2020/12/13 08:39:42;;;;;;;31.37;13.22;;;;;;;1.60;81.43;98521.11;2298691;77;21570;-65
2020/12/13 08:42:45;;;;;;;31.33;12.10;;;;;;;1.64;81.57;98523.98;2298505;77;21272;-65
2020/12/13 08:45:47;;;;;;;31.75;12.53;;;;;;;1.61;81.12;98517.19;2298464;77;21573;-65
2020/12/13 08:48:49;;;;;;;28.27;10.55;;;;;;;1.60;81.38;98527.11;2298593;77;21261;-64
2020/12/13 08:51:52;;;;;;;30.88;11.30;;;;;;;1.60;81.15;98529.70;2298813;77;21294;-64
2020/12/13 08:54:54;;;;;;;34.13;13.40;;;;;;;1.55;81.03;98529.84;2298722;77;21135;-65
2020/12/13 08:57:56;;;;;;;32.65;13.32;;;;;;;1.59;81.18;98537.05;2277026;77;21300;-65
2020/12/13 09:00:58;;;;;;;33.05;12.35;;;;;;;1.61;81.31;98532.70;2298581;77;21256;-65
2020/12/13 09:04:00;;;;;;;30.55;12.45;;;;;;;1.66;81.27;98523.05;2298930;77;21253;-64
2020/12/13 09:07:03;;;;;;;35.15;13.80;;;;;;;1.78;81.40;98522.28;2298951;77;21265;-64
2020/12/13 09:10:05;;;;;;;;;;;;;;;1.76;80.80;98521.50;2301064;77;21260;-64
2020/12/13 09:13:07;;;;;;;33.40;13.17;;;;;;;1.80;80.95;98520.06;2298690;77;20428;-64
2020/12/13 09:16:10;;;;;;;40.00;15.75;;;;;;;1.78;80.80;98520.56;2301792;77;21264;-64
2020/12/13 09:19:12;;;;;;;31.55;11.45;;;;;;;1.81;80.99;98519.17;2306074;77;21708;-64
2020/12/13 09:22:14;;;;;;;33.73;13.60;;;;;;;1.82;80.78;98516.97;2305992;77;21241;-64
2020/12/13 09:25:16;;;;;;;39.25;15.05;;;;;;;1.84;80.65;98515.63;2306022;77;21701;-65
2020/12/13 09:28:18;;;;;;;33.60;13.18;;;;;;;1.97;80.49;98516.09;2305961;77;21707;-65
2020/12/13 09:31:21;;;;;;;33.35;12.85;;;;;;;1.97;80.38;98511.78;2306102;77;21253;-65
2020/12/13 09:34:23;;;;;;;28.27;10.75;;;;;;;2.07;80.65;98517.53;2305841;77;21284;-65
2020/12/13 09:37:25;;;;;;;32.28;12.45;;;;;;;2.17;79.86;98516.77;2306066;77;21090;-65
2020/12/13 09:40:27;;;;;;;30.72;12.15;;;;;;;2.06;79.34;98523.59;2306293;77;21300;-65
2020/12/13 09:43:29;;;;;;;30.27;11.95;;;;;;;1.96;79.74;98519.59;2306299;77;21265;-64
2020/12/13 09:46:31;;;;;;;29.50;10.72;;;;;;;1.89;80.08;98519.77;2306140;77;21281;-64
2020/12/13 09:49:33;;;;;;;31.33;11.38;;;;;;;1.96;80.47;98520.89;2306327;77;21114;-64
2020/12/13 09:52:36;;;;;;;32.42;11.80;;;;;;;2.02;80.28;98528.45;2305802;77;21252;-64
2020/12/13 09:55:38;;;;;;;30.57;11.38;;;;;;;1.97;79.81;98523.43;2306250;77;21249;-64
2020/12/13 09:58:40;;;;;;;27.65;10.68;;;;;;;2.00;80.12;98517.32;2274916;77;21295;-64
2020/12/13 10:01:42;;;;;;;30.37;11.40;;;;;;;2.07;79.90;98510.60;2305821;77;21105;-65
2020/12/13 10:04:45;;;;;;;31.90;12.68;;;;;;;2.15;79.72;98508.22;2305774;77;21272;-65
2020/12/13 10:11:24;;;;;;;29.82;12.10;;;;;;;2.08;80.01;98519.20;2154838;77;21314;-65
2020/12/13 10:14:26;;;;;;;34.25;12.95;;;;;;;2.06;79.71;98516.66;2305858;77;21166;-65
2020/12/13 10:17:30;;;;;;;31.90;12.80;;;;;;;2.16;79.82;98523.69;2291718;77;21147;-64
2020/12/13 10:20:32;;;;;;;30.48;11.57;;;;;;;2.14;79.67;98525.50;2288347;78;21083;-64
2020/12/13 10:23:35;;;;;;;30.05;12.60;;;;;;;2.14;79.87;98522.04;2288449;78;21272;-64
2020/12/13 10:26:38;;;;;;;31.75;12.45;;;;;;;2.28;80.12;98525.50;2288599;78;21606;-64
2020/12/13 10:29:40;;;;;;;47.23;18.15;;;;;;;2.34;79.39;98524.00;2288797;78;21261;-64
2020/12/13 10:32:43;;;;;;;33.23;12.75;;;;;;;2.35;78.97;98525.23;2288978;78;21265;-65
2020/12/13 10:35:45;;;;;;;29.80;11.30;;;;;;;1.98;78.77;98517.34;2288710;78;21138;-64
2020/12/13 10:38:48;;;;;;;29.23;11.45;;;;;;;1.79;78.76;98521.40;2288668;78;21308;-65
2020/12/13 10:41:51;;;;;;;28.35;10.82;;;;;;;1.40;79.17;98522.98;2288595;78;21154;-64
2020/12/13 10:44:53;;;;;;;31.30;12.03;;;;;;;1.16;79.87;98524.89;2288677;78;21143;-64
2020/12/13 10:47:55;;;;;;;28.27;11.10;;;;;;;1.13;80.36;98528.85;2288694;78;21702;-64
2020/12/13 10:50:58;;;;;;;30.68;11.88;;;;;;;1.12;80.40;98532.77;2288741;78;21558;-64
2020/12/13 10:54:00;;;;;;;28.65;11.40;;;;;;;1.26;80.66;98535.82;2260346;78;21260;-65
2020/12/13 10:57:03;;;;;;;30.77;11.60;;;;;;;1.30;80.60;98534.02;2288847;78;21139;-65
2020/12/13 11:00:05;;;;;;;29.55;12.00;;;;;;;1.33;80.44;98534.76;2288265;78;21261;-65
2020/12/13 11:03:07;;;;;;;32.48;12.10;;;;;;;1.26;80.11;98537.57;2288928;78;21270;-64
2020/12/13 11:06:09;;;;;;;31.48;12.35;;;;;;;1.15;80.41;98536.56;2288597;78;21551;-64
2020/12/13 11:09:12;;;;;;;31.33;11.78;;;;;;;1.11;80.74;98542.73;2288614;78;21618;-64
2020/12/13 11:12:14;;;;;;;32.23;12.50;;;;;;;1.08;80.88;98542.36;2288461;78;21099;-64
2020/12/13 11:15:16;;;;;;;34.35;12.63;;;;;;;1.05;80.87;98537.28;2288665;78;21650;-67
2020/12/13 11:18:19;;;;;;;31.27;12.33;;;;;;;1.08;81.08;98539.77;2313055;77;21145;-65
2020/12/13 11:21:21;;;;;;;28.75;11.70;;;;;;;1.20;80.78;98540.71;2312980;77;21260;-64
2020/12/13 11:24:24;;;;;;;30.05;12.25;;;;;;;1.12;80.68;98541.81;2313269;77;21708;-65
2020/12/13 11:27:28;;;;;;;31.90;12.90;;;;;;;0.96;80.83;98538.37;2313159;77;21585;-65
2020/12/13 11:30:30;;;;;;;32.00;12.78;;;;;;;0.79;80.99;98536.65;2312930;77;21229;-65
2020/12/13 11:33:35;;;;;;;31.73;12.60;;;;;;;0.72;81.50;98535.11;2313522;77;21263;-65
2020/12/13 11:36:37;;;;;;;33.67;12.95;;;;;;;0.76;81.85;98540.61;2312966;77;21268;-64
2020/12/13 11:39:39;;;;;;;35.48;12.78;;;;;;;0.83;81.69;98545.59;2313509;77;21173;-64
2020/12/13 11:42:42;;;;;;;32.20;11.97;;;;;;;0.96;81.94;98546.13;2313268;77;21157;-64
2020/12/13 11:45:44;;;;;;;32.28;12.50;;;;;;;1.00;81.85;98550.29;2313406;77;21272;-64
2020/12/13 11:48:46;;;;;;;32.73;13.35;;;;;;;1.06;81.26;98552.32;2313023;77;21138;-64
2020/12/13 11:51:48;;;;;;;31.30;12.33;;;;;;;1.04;81.20;98550.62;2313266;77;21275;-64
2020/12/13 11:54:50;;;;;;;32.03;13.53;;;;;;;1.08;81.51;98551.82;2313132;77;21568;-65
2020/12/13 11:57:53;;;;;;;30.95;12.35;;;;;;;1.12;81.12;98555.59;2313483;77;21280;-64
2020/12/13 12:00:55;;;;;;;35.73;13.38;;;;;;;1.08;81.22;98556.56;2313015;77;21283;-65
2020/12/13 12:03:57;;;;;;;42.93;17.75;;;;;;;1.18;81.41;98554.13;2313159;77;21283;-64
2020/12/13 12:07:01;;;;;;;37.03;14.65;;;;;;;1.38;81.55;98551.00;2312999;77;21264;-64
2020/12/13 12:10:03;;;;;;;34.70;13.53;;;;;;;1.48;81.35;98542.97;2313359;77;21099;-65
2020/12/13 12:13:05;;;;;;;32.33;13.03;;;;;;;1.55;80.97;98555.70;2313253;77;21252;-64
2020/12/13 12:16:07;;;;;;;35.25;13.43;;;;;;;1.55;80.96;98556.12;2310268;77;21292;-64
2020/12/13 12:19:09;;;;;;;31.30;12.28;;;;;;;1.56;80.43;98556.53;2298716;77;21301;-64
2020/12/13 12:22:12;;;;;;;30.37;12.63;;;;;;;1.50;80.71;98560.13;2298532;77;21264;-64
2020/12/13 12:25:14;;;;;;;35.75;13.60;;;;;;;1.61;80.73;98568.02;2298734;77;21704;-64
2020/12/13 12:28:16;;;;;;;;;;;;;;;1.70;80.77;98569.06;2301104;77;21153;-64
2020/12/13 12:31:18;;;;;;;31.37;12.83;;;;;;;1.77;80.39;98565.84;2298758;77;20116;-65
2020/12/13 12:34:24;;;;;;;31.17;11.60;;;;;;;1.62;80.21;98564.10;2298265;77;21119;-64
2020/12/13 12:37:26;;;;;;;31.75;12.05;;;;;;;1.54;80.35;98565.63;2298632;77;21767;-64
2020/12/13 12:40:29;;;;;;;30.17;11.53;;;;;;;1.51;80.60;98564.42;2298561;77;21684;-64
2020/12/13 12:43:31;;;;;;;32.58;12.70;;;;;;;1.64;80.98;98568.80;2298712;77;21273;-64
2020/12/13 12:46:33;;;;;;;34.45;13.60;;;;;;;1.70;80.60;98568.61;2298744;77;21117;-64
2020/12/13 12:49:35;;;;;;;36.35;13.53;;;;;;;1.73;80.60;98573.69;2299008;77;21244;-64
2020/12/13 12:52:37;;;;;;;33.78;13.25;;;;;;;1.83;80.54;98572.98;2298582;77;21736;-64
2020/12/13 12:55:40;;;;;;;36.55;13.55;;;;;;;1.81;80.09;98573.48;2298803;77;21689;-64
2020/12/13 12:58:46;;;;;;;33.18;13.05;;;;;;;1.80;80.17;98565.31;2298511;77;21515;-64
2020/12/13 13:01:50;;;;;;;35.17;13.25;;;;;;;1.80;79.92;98561.89;2298843;77;21248;-65
2020/12/13 13:04:58;;;;;;;34.70;13.28;;;;;;;1.71;79.58;98565.57;2298528;77;21713;-64
2020/12/13 13:08:07;;;;;;;32.40;12.28;;;;;;;1.46;79.64;98562.86;2298163;77;21240;-64
2020/12/13 13:11:08;;;;;;;33.53;13.32;;;;;;;1.24;80.15;98573.79;2297283;77;21252;-64
2020/12/13 13:14:09;;;;;;;31.37;12.70;;;;;;;1.12;80.57;98574.11;2277157;77;21699;-64
2020/12/13 13:17:18;;;;;;;37.38;14.50;;;;;;;1.02;80.85;98571.78;2298461;77;21146;-64
2020/12/13 13:20:16;;;;;;;38.60;15.13;;;;;;;0.92;81.13;98570.33;2297703;77;21624;-64
2020/12/13 13:23:22;;;;;;;33.65;13.95;;;;;;;0.90;81.39;98576.41;2298635;77;21289;-65
2020/12/13 13:26:22;;;;;;;35.73;14.25;;;;;;;0.98;81.68;98580.95;2297941;77;21233;-64
2020/12/13 13:29:24;;;;;;;36.65;14.30;;;;;;;1.13;81.38;98579.69;2277112;77;21260;-64
2020/12/13 13:32:27;;;;;;;40.17;16.95;;;;;;;1.17;81.40;98583.43;2298698;77;21276;-65
2020/12/13 13:35:32;;;;;;;41.77;17.98;;;;;;;1.30;81.26;98593.45;2298279;77;21280;-65
2020/12/13 13:38:34;;;;;;;47.45;18.45;;;;;;;1.34;81.06;98596.36;2298288;77;21306;-64
2020/12/13 13:41:37;;;;;;;42.58;17.45;;;;;;;1.34;80.91;98603.66;2298683;77;21288;-65
2020/12/13 13:44:50;;;;;;;38.50;15.25;;;;;;;1.28;80.84;98612.00;2298404;77;21265;-64
2020/12/13 13:48:10;;;;;;;38.50;15.98;;;;;;;1.10;80.84;98610.77;2297704;77;21253;-64
2020/12/13 13:51:09;;;;;;;36.95;15.30;;;;;;;1.12;81.14;98616.73;2297821;77;21700;-64
2020/12/13 13:54:14;;;;;;;39.90;15.53;;;;;;;0.97;81.07;98617.53;2298893;77;21264;-64
2020/12/13 13:57:19;;;;;;;38.67;15.55;;;;;;;0.86;81.54;98623.41;2298798;77;21268;-64
2020/12/13 14:00:21;;;;;;;39.27;16.87;;;;;;;0.77;81.51;98628.81;2298270;77;21253;-64
2020/12/13 14:03:23;;;;;;;41.98;16.93;;;;;;;0.65;81.83;98633.38;2298642;77;21281;-65
2020/12/13 14:06:37;;;;;;;39.78;17.40;;;;;;;0.67;82.23;98639.80;2298690;77;21279;-64
2020/12/13 14:09:29;;;;;;;42.60;17.27;;;;;;;0.69;82.09;98645.33;2296712;77;21111;-64
2020/12/13 14:12:31;;;;;;;56.95;23.55;;;;;;;0.62;82.23;98646.81;2298598;77;21693;-65
2020/12/13 14:15:35;;;;;;;57.23;24.82;;;;;;;0.62;82.34;98648.11;2298384;77;21261;-65
2020/12/13 14:18:37;;;;;;;44.15;18.30;;;;;;;0.60;82.39;98644.24;2298325;77;21272;-64